Terminal Aerodrome Forecast
Issued by NWS Cleveland, OH

Home | Current Version | Previous Version | Text Only | Print | Product List | Glossary Off
Versions: 1 2 3 4 5 6 7 8 9 10 11 12 13 14 15 16 17 18

000
FTUS41 KCLE 181700
TAFERI
TAF
KERI 181740Z 1818/1918 33012G20KT P6SM VCSH BKN022 OVC035
      TEMPO 1818/1822 33012KT 4SM -SHRA BKN035
     FM190200 32012KT P6SM OVC035
     FM190900 33010KT P6SM SCT035
     FM191400 29008KT P6SM BKN030=

USA.gov is the U.S. government's official web portal to all federal, state and local government web resources and services.